Arrow — CRXN — position and weather

sailwx.info

Track history (hours):
 
Tides and Currents Weather Stations Pressure Air Temp Water Temp Dewpoint Dewpoint Depression Visibility Wind Speed Wind Dir Waves Ship Positions

Arrow

Last reported at 2015-Jul-29 20:05 UTC. Time now 2015-Aug-01 13:52 UTC.
Position N 36°50' E 005°54'.

Length 126 m; draft 8.1 m.

Type: Cargo ship. MMSI: 255797000.

Date/timePositionNaut miles runAvg speedWind from/ knotsBaromVisibWave heightAir tempDewpointWater temp
2015-Jul-29 20:05N 36°50' E 005°54'0 0.0
2015-Jul-28 15:24N 36°50' E 005°54'4 0.2
2015-Jul-27 19:28N 36°51' E 005°49'0 0.0
2015-Jul-27 17:17N 36°50' E 005°49'0 0.0
2015-Jul-27 13:29N 36°50' E 005°49'0 0.0
2015-Jul-27 12:29N 36°50' E 005°49'0 0.0
2015-Jul-27 11:16N 36°50' E 005°49'  
2015-Jul-24 22:28N 36°54' E 005°33'1010.9
2015-Jul-24 21:33N 36°56' E 005°21'1211.7
2015-Jul-24 20:32N 36°56' E 005°06'1111.0
2015-Jul-24 19:33N 36°59' E 004°53'1111.1
2015-Jul-24 18:33N 37°01' E 004°39'1111.5
2015-Jul-24 17:33N 37°03' E 004°25'1212.4
2015-Jul-24 16:33N 37°04' E 004°10'1212.1
2015-Jul-24 15:34N 37°04' E 003°55'1212.3
2015-Jul-24 14:33N 37°03' E 003°39'1312.5
2015-Jul-24 13:29N 37°02' E 003°23'1212.6
2015-Jul-24 12:34N 37°01' E 003°08'1212.4
2015-Jul-24 11:33N 36°60' E 002°53'1312.6
2015-Jul-24 10:33N 36°57' E 002°37'1312.5
2015-Jul-24 09:32N 36°54' E 002°22'2512.4
2015-Jul-24 07:33N 36°50' E 001°52'1712.4
2015-Jul-24 06:11N 36°48' E 001°31'812.0
2015-Jul-24 05:33N 36°47' E 001°21'1212.5
2015-Jul-24 04:33N 36°44' E 001°06'1713.1
2015-Jul-24 03:13N 36°42' E 000°44'812.3
2015-Jul-24 02:32N 36°40' E 000°34'1312.4
2015-Jul-24 01:31N 36°38' E 000°19'1512.1
2015-Jul-24 00:17N 36°35' E 000°01'1112.0
2015-Jul-23 23:22N 36°33' W 000°13'1011.9
2015-Jul-23 22:33N 36°32' W 000°25'1212.0
2015-Jul-23 21:32N 36°30' W 000°40'1111.6
2015-Jul-23 20:33N 36°28' W 000°54'1311.9
2015-Jul-23 19:28N 36°25' W 001°10'1111.8
2015-Jul-23 18:33N 36°24' W 001°23'1211.9
2015-Jul-23 17:33N 36°22' W 001°37'2412.0
2015-Jul-23 15:33N 36°18' W 002°07'355 9.8
2015-Jul-22 03:33N 36°42' W 009°27'1211.1
2015-Jul-22 02:30N 36°52' W 009°34'1212.1
2015-Jul-22 01:32N 37°04' W 009°37'1212.5
2015-Jul-22 00:34N 37°16' W 009°40'1912.6
2015-Jul-21 23:05N 37°34' W 009°46'712.5
2015-Jul-21 22:33N 37°40' W 009°48'1312.9
2015-Jul-21 21:33N 37°53' W 009°52'1312.9
2015-Jul-21 20:33N 38°05' W 009°55'1312.6
2015-Jul-21 19:33N 38°18' W 009°58'1212.2
2015-Jul-21 18:33N 38°30' W 010°02'1212.5
2015-Jul-21 17:34N 38°42' W 010°06'1212.2
2015-Jul-21 16:33N 38°54' W 010°05'1212.1
2015-Jul-21 15:33N 39°05' W 009°58'1212.2
2015-Jul-21 14:33N 39°16' W 009°51'1312.8
2015-Jul-21 13:33N 39°27' W 009°44'1411.8
2015-Jul-21 12:20N 39°40' W 009°35'2312.1
2015-Jul-21 10:28N 39°59' W 009°19'  
Track history (hours):
 
Tides and Currents Weather Stations Pressure Air Temp Water Temp Dewpoint Dewpoint Depression Visibility Wind Speed Wind Dir Waves Ship Positions

Arrow

Last reported at 2015-Jul-29 20:05 UTC. Time now 2015-Aug-01 13:52 UTC.
Position N 36°50' E 005°54'.

Length 126 m; draft 8.1 m.

Type: Cargo ship. MMSI: 255797000.

Date/timePositionNaut miles runAvg speedWind from/ knotsBaromVisibWave heightAir tempDewpointWater temp
2015-Jul-29 20:05N 36°50' E 005°54'0 0.0
2015-Jul-28 15:24N 36°50' E 005°54'4 0.2
2015-Jul-27 19:28N 36°51' E 005°49'0 0.0
2015-Jul-27 17:17N 36°50' E 005°49'0 0.0
2015-Jul-27 13:29N 36°50' E 005°49'0 0.0
2015-Jul-27 12:29N 36°50' E 005°49'0 0.0
2015-Jul-27 11:16N 36°50' E 005°49'  
2015-Jul-24 22:28N 36°54' E 005°33'1010.9
2015-Jul-24 21:33N 36°56' E 005°21'1211.7
2015-Jul-24 20:32N 36°56' E 005°06'1111.0
2015-Jul-24 19:33N 36°59' E 004°53'1111.1
2015-Jul-24 18:33N 37°01' E 004°39'1111.5
2015-Jul-24 17:33N 37°03' E 004°25'1212.4
2015-Jul-24 16:33N 37°04' E 004°10'1212.1
2015-Jul-24 15:34N 37°04' E 003°55'1212.3
2015-Jul-24 14:33N 37°03' E 003°39'1312.5
2015-Jul-24 13:29N 37°02' E 003°23'1212.6
2015-Jul-24 12:34N 37°01' E 003°08'1212.4
2015-Jul-24 11:33N 36°60' E 002°53'1312.6
2015-Jul-24 10:33N 36°57' E 002°37'1312.5
2015-Jul-24 09:32N 36°54' E 002°22'2512.4
2015-Jul-24 07:33N 36°50' E 001°52'1712.4
2015-Jul-24 06:11N 36°48' E 001°31'812.0
2015-Jul-24 05:33N 36°47' E 001°21'1212.5
2015-Jul-24 04:33N 36°44' E 001°06'1713.1
2015-Jul-24 03:13N 36°42' E 000°44'812.3
2015-Jul-24 02:32N 36°40' E 000°34'1312.4
2015-Jul-24 01:31N 36°38' E 000°19'1512.1
2015-Jul-24 00:17N 36°35' E 000°01'1112.0
2015-Jul-23 23:22N 36°33' W 000°13'1011.9
2015-Jul-23 22:33N 36°32' W 000°25'1212.0
2015-Jul-23 21:32N 36°30' W 000°40'1111.6
2015-Jul-23 20:33N 36°28' W 000°54'1311.9
2015-Jul-23 19:28N 36°25' W 001°10'1111.8
2015-Jul-23 18:33N 36°24' W 001°23'1211.9
2015-Jul-23 17:33N 36°22' W 001°37'2412.0
2015-Jul-23 15:33N 36°18' W 002°07'355 9.8
2015-Jul-22 03:33N 36°42' W 009°27'1211.1
2015-Jul-22 02:30N 36°52' W 009°34'1212.1
2015-Jul-22 01:32N 37°04' W 009°37'1212.5
2015-Jul-22 00:34N 37°16' W 009°40'1912.6
2015-Jul-21 23:05N 37°34' W 009°46'712.5
2015-Jul-21 22:33N 37°40' W 009°48'1312.9
2015-Jul-21 21:33N 37°53' W 009°52'1312.9
2015-Jul-21 20:33N 38°05' W 009°55'1312.6
2015-Jul-21 19:33N 38°18' W 009°58'1212.2
2015-Jul-21 18:33N 38°30' W 010°02'1212.5
2015-Jul-21 17:34N 38°42' W 010°06'1212.2
2015-Jul-21 16:33N 38°54' W 010°05'1212.1
2015-Jul-21 15:33N 39°05' W 009°58'1212.2
2015-Jul-21 14:33N 39°16' W 009°51'1312.8
2015-Jul-21 13:33N 39°27' W 009°44'1411.8
2015-Jul-21 12:20N 39°40' W 009°35'2312.1
2015-Jul-21 10:28N 39°59' W 009°19'  

Dump ship's entire track history